Time;durP1;ratioP1;P1;durP2;ratioP2;P2;SDS_P1;SDS_P2;PMS_P1;PMS_P2;Temp;Humidity;BMP_temperature;BMP_pressure;BME280_temperature;BME280_humidity;BME280_pressure;Samples;Min_cycle;Max_cycle;Signal;HPM_P1;HPM_P2
2022/07/14 00:01:00;;;;;;;0.70;0.47;;;;;;;20.16;44.27;98940.09;5005160;28;20549;-50
2022/07/14 00:03:26;;;;;;;0.97;0.50;;;;;;;20.09;44.23;98936.63;5002061;28;20218;-50
2022/07/14 00:05:54;;;;;;;1.53;0.50;;;;;;;20.05;45.19;98937.03;5001450;28;20234;-50
2022/07/14 00:08:22;;;;;;;1.00;0.50;;;;;;;20.08;45.77;98935.84;4986840;28;20213;-50
2022/07/14 00:10:48;;;;;;;0.70;0.50;;;;;;;19.94;46.17;98932.34;4999706;28;20228;-50
2022/07/14 00:13:15;;;;;;;1.50;0.70;;;;;;;19.88;45.57;98939.28;4989482;28;20231;-50
2022/07/14 00:15:43;;;;;;;1.83;0.50;;;;;;;19.89;46.16;98940.94;4996705;28;20316;-50
2022/07/14 00:18:10;;;;;;;3.87;0.70;;;;;;;19.84;45.79;98939.88;4999902;28;20220;-50
2022/07/14 00:20:37;;;;;;;1.90;0.47;;;;;;;19.71;46.15;98933.53;4996799;28;20234;-50
2022/07/14 00:23:06;;;;;;;2.73;0.57;;;;;;;19.80;45.78;98928.88;4997251;28;20229;-50
2022/07/14 00:25:33;;;;;;;0.90;0.50;;;;;;;19.73;46.28;98934.16;5000536;28;20634;-50
2022/07/14 00:28:00;;;;;;;1.70;0.50;;;;;;;19.77;45.57;98935.38;5013662;28;20243;-50
2022/07/14 00:30:27;;;;;;;1.80;0.60;;;;;;;19.69;45.74;98935.56;5013936;28;20226;-50
2022/07/14 00:33:12;;;;;;;0.40;0.40;;;;;;;19.54;46.51;98934.97;5015134;28;20342;-50
2022/07/14 00:35:39;;;;;;;0.63;0.50;;;;;;;19.47;46.75;98927.00;4997815;28;20708;-49
2022/07/14 00:38:08;;;;;;;3.03;0.60;;;;;;;19.42;46.97;98927.63;4997673;28;20190;-50
2022/07/14 00:40:35;;;;;;;0.50;0.47;;;;;;;19.40;46.39;98927.00;4998018;28;20209;-50
2022/07/14 00:43:02;;;;;;;1.43;0.57;;;;;;;19.37;47.30;98921.28;4997596;28;20217;-50
2022/07/14 00:45:29;;;;;;;3.43;0.60;;;;;;;19.36;46.90;98919.66;4997891;28;20252;-49
2022/07/14 00:47:58;;;;;;;1.43;0.50;;;;;;;19.42;47.71;98913.56;4998117;28;20544;-49
2022/07/14 00:50:25;;;;;;;0.70;0.70;;;;;;;19.36;47.32;98909.91;4997868;28;20222;-50
2022/07/14 00:52:52;;;;;;;1.80;0.60;;;;;;;19.27;47.68;98917.19;5015128;28;20836;-49
2022/07/14 00:55:20;;;;;;;2.90;0.60;;;;;;;19.31;49.07;98912.34;4997878;28;20212;-50
2022/07/14 00:57:47;;;;;;;1.00;0.67;;;;;;;19.27;48.70;98900.50;4997741;28;20253;-49
2022/07/14 01:00:16;;;;;;;3.27;0.87;;;;;;;19.58;47.72;98904.44;4997392;28;20736;-50
2022/07/14 01:02:44;;;;;;;0.80;0.60;;;;;;;19.48;48.24;98910.09;5014698;28;20222;-50
2022/07/14 01:05:11;;;;;;;1.73;0.70;;;;;;;19.44;47.95;98914.16;5014673;28;20270;-50
2022/07/14 01:07:38;;;;;;;1.33;0.70;;;;;;;19.53;47.54;98914.81;4997385;28;20190;-51
2022/07/14 01:10:06;;;;;;;0.70;0.53;;;;;;;19.43;47.92;98904.59;4997517;28;20206;-50
2022/07/14 01:12:35;;;;;;;2.87;0.80;;;;;;;19.44;47.48;98908.88;4996691;28;20714;-50
2022/07/14 01:15:03;;;;;;;1.87;0.80;;;;;;;19.29;47.81;98915.16;4997066;28;20200;-50
2022/07/14 01:17:31;;;;;;;0.80;0.70;;;;;;;19.30;49.58;98908.06;4996787;28;20242;-50
2022/07/14 01:19:58;;;;;;;1.90;0.70;;;;;;;19.24;49.22;98907.00;4996923;28;20246;-50
2022/07/14 01:22:27;;;;;;;1.37;0.70;;;;;;;19.13;49.77;98897.00;4996616;28;20561;-50
2022/07/14 01:24:54;;;;;;;0.60;0.60;;;;;;;19.03;50.66;98905.34;5014683;28;20192;-51
2022/07/14 01:27:21;;;;;;;1.47;0.83;;;;;;;19.15;50.17;98902.91;4997168;28;20194;-49
2022/07/14 01:29:48;;;;;;;5.27;0.77;;;;;;;19.02;50.64;98896.59;4995989;28;20199;-49
2022/07/14 01:32:15;;;;;;;2.43;0.70;;;;;;;19.11;50.43;98894.56;4996445;28;20224;-49
2022/07/14 01:34:41;;;;;;;3.07;0.80;;;;;;;18.99;51.18;98893.53;5013958;28;20209;-50
2022/07/14 01:37:09;;;;;;;1.53;0.80;;;;;;;18.99;50.96;98881.13;4996635;28;20640;-49
2022/07/14 01:39:37;;;;;;;1.63;0.87;;;;;;;18.96;50.47;98886.81;4996638;28;20293;-49
2022/07/14 01:42:06;;;;;;;1.13;0.80;;;;;;;18.84;50.84;98888.38;4988520;28;20189;-49
2022/07/14 01:44:34;;;;;;;1.00;0.90;;;;;;;18.86;50.68;98883.69;5004020;28;20207;-49
2022/07/14 01:47:01;;;;;;;3.60;0.77;;;;;;;18.74;51.14;98884.25;5003389;28;20197;-49
2022/07/14 01:49:28;;;;;;;1.67;0.77;;;;;;;18.65;52.15;98882.78;5019474;28;20215;-49
2022/07/14 01:51:57;;;;;;;1.43;0.70;;;;;;;18.67;51.74;98883.41;5007723;28;20223;-49
2022/07/14 01:54:26;;;;;;;1.03;0.80;;;;;;;18.57;51.90;98880.31;4999463;28;20205;-50
2022/07/14 01:56:54;;;;;;;1.03;0.70;;;;;;;18.72;51.67;98882.81;4996029;28;20694;-49
2022/07/14 01:59:22;;;;;;;3.17;1.00;;;;;;;18.67;51.59;98872.00;4996275;28;20621;-49
2022/07/14 02:01:50;;;;;;;1.10;0.80;;;;;;;18.56;52.08;98882.13;4996135;28;20279;-49
2022/07/14 02:04:19;;;;;;;4.17;0.90;;;;;;;18.47;52.13;98879.88;5002750;28;20656;-50
2022/07/14 02:06:49;;;;;;;1.33;0.77;;;;;;;18.45;52.44;98877.44;5012432;28;20189;-49
2022/07/14 02:12:12;;;;;;;1.90;1.27;;;;;;;18.50;53.35;98882.13;4987336;28;20282;-49
2022/07/14 02:14:41;;;;;;;2.10;0.80;;;;;;;18.42;52.06;98883.09;4996091;28;20202;-49
2022/07/14 02:17:09;;;;;;;0.83;0.50;;;;;;;18.27;52.86;98878.75;4995947;28;20230;-49
2022/07/14 02:19:37;;;;;;;0.90;0.60;;;;;;;18.36;53.13;98878.59;4996124;28;20193;-49
2022/07/14 02:22:05;;;;;;;1.70;1.10;;;;;;;18.29;52.96;98881.19;4995625;28;20291;-49
2022/07/14 02:24:33;;;;;;;1.47;0.87;;;;;;;18.16;53.50;98881.94;4995633;28;20192;-50
2022/07/14 02:26:59;;;;;;;3.37;0.80;;;;;;;18.12;53.05;98881.50;4995897;28;20200;-52
2022/07/14 02:29:28;;;;;;;1.47;0.80;;;;;;;18.08;53.18;98879.44;5013673;28;20677;-52
2022/07/14 02:31:55;;;;;;;1.60;0.80;;;;;;;18.25;53.84;98879.94;4995563;28;20279;-52
2022/07/14 02:34:22;;;;;;;4.57;0.80;;;;;;;18.20;53.74;98879.72;5013241;28;20227;-49
2022/07/14 02:36:52;;;;;;;0.83;0.83;;;;;;;18.08;53.77;98876.81;4995538;28;20246;-49
2022/07/14 02:39:19;;;;;;;1.40;0.90;;;;;;;18.06;54.14;98874.34;4995431;28;20224;-50
2022/07/14 02:41:46;;;;;;;2.93;0.87;;;;;;;18.06;53.28;98876.19;5003700;28;20204;-49
2022/07/14 02:44:14;;;;;;;2.23;0.90;;;;;;;18.13;53.03;98879.69;4995240;28;20220;-49
2022/07/14 02:46:44;;;;;;;3.43;0.90;;;;;;;17.99;53.55;98882.25;4994678;28;20203;-49
2022/07/14 02:49:12;;;;;;;10.23;1.30;;;;;;;17.93;53.52;98875.06;5003509;28;20199;-49
2022/07/14 02:51:42;;;;;;;1.33;0.77;;;;;;;18.10;53.67;98875.59;4995224;28;20287;-49
2022/07/14 02:54:11;;;;;;;2.97;0.70;;;;;;;18.04;54.44;98881.66;4995036;28;20647;-50
2022/07/14 02:56:38;;;;;;;2.80;0.77;;;;;;;18.01;53.87;98879.41;4995151;28;20222;-50
2022/07/14 02:59:07;;;;;;;3.07;0.70;;;;;;;17.96;53.34;98882.59;4995200;28;20199;-49
2022/07/14 03:01:35;;;;;;;0.83;0.80;;;;;;;18.00;53.76;98877.78;4995222;28;20201;-49
2022/07/14 03:04:07;;;;;;;1.13;0.80;;;;;;;17.97;53.71;98878.13;4994860;28;20209;-49
2022/07/14 03:06:34;;;;;;;0.80;0.63;;;;;;;17.90;53.18;98875.44;4995094;28;20188;-49
2022/07/14 03:09:04;;;;;;;4.03;1.00;;;;;;;18.00;53.43;98880.44;4995132;28;20199;-49
2022/07/14 03:11:33;;;;;;;4.30;0.90;;;;;;;18.10;53.20;98882.72;4994985;28;20744;-50
2022/07/14 03:14:00;;;;;;;4.23;0.87;;;;;;;17.98;53.55;98887.69;5012454;28;20697;-49
2022/07/14 03:16:30;;;;;;;3.33;1.13;;;;;;;17.86;53.84;98882.09;4994808;28;20196;-49
2022/07/14 03:19:04;;;;;;;8.13;0.90;;;;;;;17.82;53.88;98876.41;4995080;28;20702;-49
2022/07/14 03:21:33;;;;;;;2.03;0.77;;;;;;;17.80;54.06;98883.72;4994927;28;20199;-49
2022/07/14 03:24:02;;;;;;;1.60;0.50;;;;;;;17.69;54.99;98886.88;4994825;28;20272;-49
2022/07/14 03:26:31;;;;;;;1.67;0.80;;;;;;;17.61;54.91;98881.72;4994850;28;20219;-49
2022/07/14 03:28:59;;;;;;;2.97;0.97;;;;;;;17.58;55.01;98887.38;4994800;28;20298;-50
2022/07/14 03:31:26;;;;;;;3.03;0.83;;;;;;;17.47;55.44;98886.88;4994807;28;20194;-49
2022/07/14 03:33:55;;;;;;;2.63;1.10;;;;;;;17.54;55.46;98886.91;4994351;28;20713;-49
2022/07/14 03:36:23;;;;;;;2.37;0.70;;;;;;;17.60;54.43;98878.25;4994643;28;20685;-49
2022/07/14 03:38:52;;;;;;;1.27;0.90;;;;;;;17.68;55.34;98872.84;4994664;28;20598;-49
2022/07/14 03:41:20;;;;;;;6.00;2.43;;;;;;;17.60;54.63;98883.53;5000394;28;20207;-50
2022/07/14 03:43:48;;;;;;;1.17;0.80;;;;;;;17.51;54.83;98877.56;4996196;28;20266;-49
2022/07/14 03:46:18;;;;;;;3.20;0.83;;;;;;;17.48;55.31;98885.06;4994682;28;20262;-49
2022/07/14 03:48:54;;;;;;;2.93;1.00;;;;;;;17.51;54.56;98892.56;4994538;28;20198;-49
2022/07/14 03:51:22;;;;;;;2.90;0.80;;;;;;;17.58;55.55;98884.75;4994690;28;20202;-49
2022/07/14 03:53:49;;;;;;;1.20;0.90;;;;;;;17.47;55.01;98883.44;4994338;28;20215;-49
2022/07/14 03:56:19;;;;;;;0.97;0.77;;;;;;;17.50;54.62;98883.84;4994454;28;20206;-49
2022/07/14 03:58:48;;;;;;;2.63;0.80;;;;;;;17.49;55.19;98887.50;5014205;28;20223;-49
2022/07/14 04:01:18;;;;;;;1.30;0.87;;;;;;;17.45;55.53;98883.59;4998556;28;20195;-49
2022/07/14 04:03:49;;;;;;;1.10;1.00;;;;;;;17.48;55.69;98885.88;4998105;28;20266;-49
2022/07/14 04:06:17;;;;;;;4.20;0.97;;;;;;;17.44;55.97;98883.81;4998526;28;20202;-50
2022/07/14 04:08:46;;;;;;;2.87;0.70;;;;;;;17.54;55.74;98885.13;4998269;28;20699;-49
2022/07/14 04:11:13;;;;;;;2.43;0.80;;;;;;;17.53;55.66;98887.94;4997535;28;20204;-49
2022/07/14 04:13:41;;;;;;;0.93;0.70;;;;;;;17.48;55.83;98890.34;4995806;28;20705;-49
2022/07/14 04:16:09;;;;;;;0.73;0.73;;;;;;;17.47;55.94;98883.44;4998285;28;20192;-49
2022/07/14 04:18:41;;;;;;;4.67;0.90;;;;;;;17.49;55.65;98887.50;4998045;28;20222;-49
2022/07/14 04:21:11;;;;;;;2.50;0.87;;;;;;;17.60;55.57;98893.28;4998064;28;20208;-49
2022/07/14 04:23:39;;;;;;;2.63;0.70;;;;;;;17.69;55.77;98895.59;5005813;28;20215;-49
2022/07/14 04:26:07;;;;;;;0.83;0.80;;;;;;;17.62;56.03;98893.91;5002180;28;20227;-49
2022/07/14 04:28:36;;;;;;;3.10;0.70;;;;;;;17.57;56.91;98891.81;5001823;28;20759;-49
2022/07/14 04:31:07;;;;;;;1.20;0.80;;;;;;;17.56;55.87;98898.94;5006129;28;20203;-50
2022/07/14 04:33:35;;;;;;;0.80;0.80;;;;;;;17.64;56.78;98903.25;5017217;28;20706;-50
2022/07/14 04:36:05;;;;;;;1.23;0.53;;;;;;;17.67;57.02;98899.44;5017786;28;20560;-49
2022/07/14 04:38:50;;;;;;;2.97;0.90;;;;;;;17.64;57.53;98892.69;5035577;28;20245;-49
2022/07/14 04:41:19;;;;;;;4.27;1.10;;;;;;;17.68;57.93;98899.22;5017556;28;20200;-49
2022/07/14 04:43:46;;;;;;;2.07;1.10;;;;;;;17.69;57.61;98892.94;5017087;28;20215;-49
2022/07/14 04:46:15;;;;;;;0.80;0.70;;;;;;;17.69;57.19;98900.06;5017427;28;20194;-49
2022/07/14 04:54:22;;;;;;;0.90;0.70;;;;;;;17.77;57.11;98894.66;5016615;28;20198;-49
2022/07/14 04:57:09;;;;;;;0.70;0.60;;;;;;;17.77;58.07;98907.84;5034315;28;20218;-49
2022/07/14 04:59:41;;;;;;;4.93;0.80;;;;;;;17.79;56.86;98903.19;5017020;28;20194;-50
2022/07/14 05:02:10;;;;;;;2.87;0.80;;;;;;;17.87;57.12;98896.16;5016449;28;20191;-49
2022/07/14 05:04:37;;;;;;;2.37;0.70;;;;;;;18.02;55.63;98906.63;5017221;28;20199;-49
2022/07/14 05:07:06;;;;;;;1.73;1.00;;;;;;;18.03;56.72;98903.78;5017169;28;20191;-50
2022/07/14 05:09:36;;;;;;;1.00;0.80;;;;;;;18.10;57.18;98906.50;5016212;28;20222;-50
2022/07/14 05:12:06;;;;;;;0.80;0.80;;;;;;;18.17;56.77;98903.88;5016885;28;20199;-49
2022/07/14 05:14:34;;;;;;;3.53;0.80;;;;;;;18.26;56.34;98900.91;5016978;28;20246;-51
2022/07/14 05:17:03;;;;;;;2.50;0.80;;;;;;;18.41;55.94;98908.72;5016873;28;20197;-51
2022/07/14 05:19:32;;;;;;;2.27;0.70;;;;;;;18.53;56.18;98903.69;5016603;28;20560;-52
2022/07/14 05:22:00;;;;;;;3.60;0.77;;;;;;;18.69;56.20;98899.91;5016661;28;20235;-49
2022/07/14 05:24:29;;;;;;;0.93;0.50;;;;;;;18.89;56.62;98886.75;5016820;28;20356;-49
2022/07/14 05:26:59;;;;;;;2.27;0.80;;;;;;;19.02;57.23;98899.25;5016785;28;20197;-52
2022/07/14 05:29:27;;;;;;;2.00;0.87;;;;;;;19.16;55.66;98893.97;5016622;28;20199;-51
2022/07/14 05:31:54;;;;;;;1.73;0.90;;;;;;;19.31;55.57;98893.81;5016495;28;20737;-52
2022/07/14 05:34:23;;;;;;;2.17;1.00;;;;;;;19.42;54.72;98890.56;5016459;28;20197;-49
2022/07/14 05:36:52;;;;;;;1.57;0.70;;;;;;;19.54;54.68;98893.41;5016513;28;20196;-49
2022/07/14 05:39:20;;;;;;;2.77;0.93;;;;;;;19.65;55.06;98896.47;5016296;28;20307;-49
2022/07/14 05:41:48;;;;;;;1.50;0.90;;;;;;;19.72;56.46;98897.28;5016686;28;20190;-50
2022/07/14 05:44:15;;;;;;;1.93;0.90;;;;;;;19.82;55.72;98899.53;5016277;28;20336;-49
2022/07/14 05:46:43;;;;;;;0.80;0.70;;;;;;;19.90;56.67;98900.19;5016205;28;20227;-49
2022/07/14 05:49:10;;;;;;;2.33;0.80;;;;;;;19.97;57.20;98886.91;5034519;28;20185;-50
2022/07/14 05:51:38;;;;;;;1.27;0.80;;;;;;;20.10;56.00;98891.38;5016527;28;20189;-49
2022/07/14 05:54:07;;;;;;;1.60;0.87;;;;;;;20.27;57.91;98890.91;5016243;28;20213;-49
2022/07/14 05:56:35;;;;;;;2.47;1.27;;;;;;;20.35;57.03;98888.88;5016314;28;20284;-49
2022/07/14 05:59:02;;;;;;;1.67;0.90;;;;;;;20.56;56.58;98891.47;5016244;28;20591;-49
2022/07/14 06:01:29;;;;;;;0.83;0.80;;;;;;;20.77;55.55;98879.72;5016167;28;20190;-49
2022/07/14 06:03:58;;;;;;;2.50;0.70;;;;;;;20.96;53.79;98878.06;5016217;28;20301;-49
2022/07/14 06:06:26;;;;;;;1.07;0.93;;;;;;;21.11;54.28;98874.31;5033998;28;20313;-49
2022/07/14 06:08:53;;;;;;;6.13;0.90;;;;;;;21.23;53.44;98869.91;5016338;28;20196;-49
2022/07/14 06:11:22;;;;;;;4.87;1.10;;;;;;;21.35;54.13;98870.06;5016270;28;20196;-50
2022/07/14 06:13:49;;;;;;;6.43;1.17;;;;;;;21.43;55.31;98869.78;5033898;28;20205;-50
2022/07/14 06:16:17;;;;;;;2.30;0.80;;;;;;;21.62;53.19;98876.00;5016285;28;20223;-52
2022/07/14 06:18:44;;;;;;;1.70;0.97;;;;;;;21.78;52.98;98873.81;5016958;28;20224;-49
2022/07/14 06:21:11;;;;;;;2.20;0.90;;;;;;;21.97;52.52;98872.84;5016945;28;20217;-49
2022/07/14 06:23:39;;;;;;;2.30;0.80;;;;;;;22.20;51.45;98870.56;5016321;28;20635;-49
2022/07/14 06:26:10;;;;;;;2.17;1.20;;;;;;;22.44;51.24;98860.91;5016255;28;20206;-50
2022/07/14 06:28:41;;;;;;;1.87;1.00;;;;;;;22.68;50.71;98866.34;5016506;28;20196;-50
2022/07/14 06:31:09;;;;;;;1.80;1.00;;;;;;;22.90;50.14;98858.66;5033768;28;20189;-50
2022/07/14 06:33:37;;;;;;;1.90;0.77;;;;;;;23.10;48.01;98857.59;5015881;28;20721;-49
2022/07/14 06:36:19;;;;;;;3.10;1.10;;;;;;;23.39;47.28;98857.81;5016274;28;20685;-50
2022/07/14 06:38:47;;;;;;;1.57;0.80;;;;;;;23.74;46.67;98855.16;5016114;28;20257;-49
2022/07/14 06:41:14;;;;;;;4.93;0.87;;;;;;;24.02;47.76;98864.34;5016053;28;20702;-50
2022/07/14 06:43:46;;;;;;;2.90;0.87;;;;;;;24.20;47.10;98865.25;5015697;28;20216;-51
2022/07/14 06:46:15;;;;;;;3.40;1.03;;;;;;;24.24;46.49;98858.41;5015895;28;20254;-50
2022/07/14 06:48:43;;;;;;;1.67;0.93;;;;;;;24.30;46.54;98864.66;5033706;28;20294;-49
2022/07/14 06:51:10;;;;;;;3.67;1.20;;;;;;;24.24;47.85;98866.41;5015980;28;20188;-49
2022/07/14 06:53:38;;;;;;;2.47;0.90;;;;;;;24.18;47.99;98864.69;5015686;28;20757;-50
2022/07/14 06:56:06;;;;;;;1.03;0.90;;;;;;;24.18;48.46;98862.00;5033564;28;20553;-50
2022/07/14 06:58:33;;;;;;;1.67;1.00;;;;;;;24.22;48.85;98865.00;5026368;28;20204;-50
2022/07/14 07:01:01;;;;;;;0.83;0.83;;;;;;;24.32;48.07;98867.88;5007074;28;20190;-50
2022/07/14 07:03:28;;;;;;;5.60;0.93;;;;;;;24.50;48.06;98868.78;5008976;28;20263;-50
2022/07/14 07:08:40;;;;;;;1.10;1.00;;;;;;;24.96;45.80;98868.88;5009622;28;20191;-50
2022/07/14 07:11:07;;;;;;;2.60;1.10;;;;;;;25.14;45.28;98878.53;5011770;28;20203;-50
2022/07/14 07:13:48;;;;;;;3.40;1.20;;;;;;;25.33;44.28;98879.94;5012629;28;20306;-49
2022/07/14 07:16:20;;;;;;;2.37;1.00;;;;;;;25.48;43.93;98871.38;5006757;28;20194;-49
2022/07/14 07:18:47;;;;;;;2.93;1.40;;;;;;;25.62;44.02;98874.53;5012579;28;20631;-48
2022/07/14 07:21:14;;;;;;;2.33;1.33;;;;;;;25.71;44.43;98866.91;5012753;28;20199;-49
2022/07/14 07:23:46;;;;;;;2.80;1.30;;;;;;;25.72;44.59;98865.06;5006641;28;20683;-50
2022/07/14 07:26:13;;;;;;;5.33;1.10;;;;;;;25.74;45.30;98849.59;4999884;28;20210;-49
2022/07/14 07:28:40;;;;;;;2.83;0.90;;;;;;;25.75;44.27;98854.66;4999262;28;20191;-49
2022/07/14 07:31:07;;;;;;;1.38;0.82;;;;;;;25.79;43.44;98849.66;5021011;28;20635;-49
2022/07/14 07:33:36;;;;;;;4.87;1.00;;;;;;;25.85;44.20;98845.19;5007343;28;20214;-49
2022/07/14 07:36:03;;;;;;;1.23;1.00;;;;;;;25.83;43.18;98842.78;4993057;28;20230;-49
2022/07/14 07:38:30;;;;;;;4.20;1.40;;;;;;;25.78;44.33;98837.34;5008291;28;20217;-49
2022/07/14 07:41:00;;;;;;;2.03;0.90;;;;;;;25.64;44.48;98832.34;5006298;28;20211;-51
2022/07/14 07:43:27;;;;;;;3.85;1.08;;;;;;;25.59;45.18;98826.91;5013624;28;20312;-49
2022/07/14 07:45:54;;;;;;;1.50;0.90;;;;;;;25.56;41.36;98831.94;5031072;28;20194;-49
2022/07/14 07:48:22;;;;;;;4.47;0.73;;;;;;;25.71;42.15;98824.13;5031782;28;20240;-49
2022/07/14 07:50:50;;;;;;;1.53;1.00;;;;;;;25.70;42.53;98819.06;5031893;28;20199;-49
2022/07/14 07:53:17;;;;;;;3.53;0.70;;;;;;;25.63;41.83;98817.34;5031675;28;20207;-49
2022/07/14 07:55:44;;;;;;;1.23;0.97;;;;;;;25.70;41.03;98825.19;5014248;28;20198;-49
2022/07/14 07:58:12;;;;;;;2.60;1.00;;;;;;;25.91;40.20;98814.78;5031819;28;20297;-49
2022/07/14 08:00:39;;;;;;;2.90;1.10;;;;;;;26.06;41.86;98817.66;5031844;28;20192;-49
2022/07/14 08:03:07;;;;;;;4.10;1.00;;;;;;;26.32;42.71;98818.00;5031634;28;20567;-49
2022/07/14 08:05:34;;;;;;;9.37;1.50;;;;;;;26.45;43.31;98819.47;5031924;28;20599;-49
2022/07/14 08:08:03;;;;;;;5.53;1.30;;;;;;;26.56;42.49;98817.72;5031672;28;20194;-48
2022/07/14 08:10:30;;;;;;;1.57;1.17;;;;;;;26.57;43.12;98823.88;5014121;28;20206;-49
2022/07/14 08:12:58;;;;;;;4.17;1.23;;;;;;;26.62;43.15;98818.59;5013771;28;20224;-48
2022/07/14 08:15:26;;;;;;;2.67;1.50;;;;;;;26.80;43.25;98820.09;5031758;28;20229;-48
2022/07/14 08:17:53;;;;;;;1.83;1.13;;;;;;;26.99;42.55;98822.44;5031610;28;20190;-49
2022/07/14 08:20:20;;;;;;;1.50;1.37;;;;;;;27.11;41.79;98817.72;5031639;28;20190;-49
2022/07/14 08:22:47;;;;;;;2.47;1.53;;;;;;;27.22;39.86;98816.75;5031214;28;20202;-49
2022/07/14 08:25:16;;;;;;;2.97;1.13;;;;;;;27.37;40.39;98815.25;5031643;28;20192;-49
2022/07/14 08:27:43;;;;;;;3.77;1.20;;;;;;;27.51;39.25;98807.59;5013867;28;20203;-49
2022/07/14 08:30:10;;;;;;;5.57;1.47;;;;;;;27.65;37.41;98811.44;5031622;28;20188;-49
2022/07/14 08:32:39;;;;;;;2.45;1.33;;;;;;;27.76;36.23;98803.47;5031464;28;20280;-49
2022/07/14 08:35:09;;;;;;;2.60;1.27;;;;;;;27.79;36.20;98803.72;5031513;28;20190;-49
2022/07/14 08:37:36;;;;;;;4.68;1.10;;;;;;;27.97;33.01;98807.88;5031524;28;20282;-49
2022/07/14 08:40:05;;;;;;;4.38;1.02;;;;;;;28.05;32.91;98803.84;5031344;28;20680;-49
2022/07/14 08:42:33;;;;;;;4.50;1.05;;;;;;;28.13;31.86;98807.94;5031225;28;20217;-49
2022/07/14 08:45:07;;;;;;;1.52;1.13;;;;;;;28.29;30.42;98808.81;5033603;28;20190;-49
2022/07/14 08:47:35;;;;;;;3.75;1.00;;;;;;;28.36;30.82;98811.22;5017424;28;20196;-49
2022/07/14 08:50:04;;;;;;;1.98;1.30;;;;;;;28.46;32.73;98805.91;5035133;28;20181;-49
2022/07/14 08:52:32;;;;;;;4.53;1.27;;;;;;;28.60;31.33;98803.53;5034852;28;20255;-49
2022/07/14 08:55:00;;;;;;;1.73;1.00;;;;;;;28.69;31.62;98801.91;5035152;28;20193;-49
2022/07/14 08:57:28;;;;;;;2.40;1.30;;;;;;;28.64;32.19;98793.06;5034810;28;20240;-49
2022/07/14 08:59:57;;;;;;;4.32;1.10;;;;;;;28.76;30.86;98795.47;5034917;28;20681;-49
2022/07/14 09:02:24;;;;;;;3.67;1.10;;;;;;;28.84;29.79;98785.06;5034020;28;20444;-50
2022/07/14 09:04:52;;;;;;;2.95;1.20;;;;;;;28.89;30.07;98788.81;5035427;28;20188;-49
2022/07/14 09:07:31;;;;;;;4.95;1.08;;;;;;;29.11;29.22;98780.47;5035054;28;20191;-51
2022/07/14 09:10:05;;;;;;;2.38;0.90;;;;;;;29.13;26.41;98784.53;5034820;28;20187;-50
2022/07/14 09:12:32;;;;;;;8.82;1.20;;;;;;;29.12;27.38;98787.47;5017344;28;20218;-52
2022/07/14 09:17:54;;;;;;;4.32;1.23;;;;;;;29.49;27.76;98777.50;5035885;28;20195;-50
2022/07/14 09:20:22;;;;;;;3.00;1.20;;;;;;;29.60;26.96;98774.53;5035686;28;20209;-50
2022/07/14 09:22:55;;;;;;;3.55;1.27;;;;;;;29.46;27.97;98776.97;5034225;28;20249;-50
2022/07/14 09:25:23;;;;;;;6.63;1.00;;;;;;;29.53;27.89;98774.00;5016842;28;20203;-50
2022/07/14 09:27:50;;;;;;;2.28;0.90;;;;;;;29.60;25.84;98771.00;5034684;28;20195;-50
2022/07/14 09:30:18;;;;;;;2.92;1.02;;;;;;;29.55;28.23;98769.16;5034561;28;20277;-49
2022/07/14 09:32:48;;;;;;;3.53;1.20;;;;;;;29.60;29.07;98777.22;5034201;28;20219;-50
2022/07/14 09:35:18;;;;;;;3.95;1.20;;;;;;;29.74;27.98;98777.44;5034454;28;20256;-50
2022/07/14 09:37:46;;;;;;;4.40;1.10;;;;;;;29.84;27.07;98770.41;5034257;28;20619;-50
2022/07/14 09:40:16;;;;;;;4.07;1.20;;;;;;;29.87;26.50;98767.94;5034163;28;20207;-50
2022/07/14 09:42:55;;;;;;;3.70;1.02;;;;;;;29.99;24.76;98769.56;5033795;28;20218;-50
2022/07/14 09:45:26;;;;;;;4.25;1.05;;;;;;;29.91;25.70;98773.59;5034511;28;20196;-50
2022/07/14 09:47:56;;;;;;;6.82;1.00;;;;;;;29.98;27.29;98776.84;5034116;28;20188;-50
2022/07/14 09:50:38;;;;;;;4.60;1.00;;;;;;;30.07;26.09;98770.88;5033971;28;20215;-51
2022/07/14 09:53:15;;;;;;;5.22;1.08;;;;;;;29.95;25.81;98765.78;5033664;28;20577;-50
2022/07/14 09:55:46;;;;;;;5.13;1.10;;;;;;;30.08;25.39;98756.34;5033659;28;20277;-50
2022/07/14 09:58:13;;;;;;;3.42;1.08;;;;;;;30.25;26.48;98764.06;5034334;28;20194;-50
2022/07/14 10:00:42;;;;;;;6.03;1.15;;;;;;;30.38;25.90;98766.13;5033622;28;20612;-50
2022/07/14 10:03:10;;;;;;;2.15;1.20;;;;;;;30.46;26.50;98772.81;5033375;28;20710;-51
2022/07/14 10:05:38;;;;;;;2.67;0.95;;;;;;;30.51;24.88;98772.78;5033849;28;20192;-50
2022/07/14 10:08:06;;;;;;;4.47;1.00;;;;;;;30.59;24.43;98774.13;5033629;28;20192;-50
2022/07/14 10:10:35;;;;;;;3.33;1.05;;;;;;;30.60;25.41;98767.63;5033632;28;20721;-50
2022/07/14 10:13:05;;;;;;;3.80;1.00;;;;;;;30.71;24.60;98766.47;5033302;28;20266;-51
2022/07/14 10:15:32;;;;;;;1.50;1.00;;;;;;;30.77;24.78;98761.84;5033431;28;20803;-50
2022/07/14 10:18:05;;;;;;;2.53;1.00;;;;;;;30.79;24.81;98751.59;5033545;28;20215;-50
2022/07/14 10:20:53;;;;;;;8.85;1.17;;;;;;;30.72;25.19;98751.09;5033589;28;20555;-50
2022/07/14 10:23:22;;;;;;;0.73;0.73;;;;;;;30.83;23.66;98747.25;5033517;28;20560;-50
2022/07/14 10:25:51;;;;;;;3.20;0.68;;;;;;;30.85;24.34;98745.06;5033335;28;20187;-50
2022/07/14 10:28:20;;;;;;;2.78;0.98;;;;;;;30.92;23.52;98745.56;5033347;28;20270;-50
2022/07/14 10:30:59;;;;;;;2.75;1.05;;;;;;;30.89;24.93;98745.31;5033240;28;20246;-50
2022/07/14 10:33:38;;;;;;;4.43;1.23;;;;;;;30.76;25.06;98738.69;5032897;28;20265;-50
2022/07/14 10:36:15;;;;;;;6.10;0.85;;;;;;;30.78;24.06;98737.31;5033126;28;20188;-50
2022/07/14 10:38:53;;;;;;;2.55;0.90;;;;;;;30.67;25.20;98737.69;5033217;28;20648;-50
2022/07/14 10:41:35;;;;;;;7.38;1.30;;;;;;;30.76;25.20;98734.09;5032893;28;20655;-50
2022/07/14 10:44:10;;;;;;;1.88;1.10;;;;;;;30.85;25.05;98733.47;5032980;28;20703;-50
2022/07/14 10:46:39;;;;;;;3.35;1.30;;;;;;;30.96;25.21;98734.22;5032883;28;20614;-50
2022/07/14 10:49:09;;;;;;;3.75;1.23;;;;;;;31.02;25.65;98735.78;5032999;28;20175;-50
2022/07/14 10:51:44;;;;;;;3.58;1.23;;;;;;;30.95;25.98;98733.38;5033272;28;20192;-50
2022/07/14 10:54:13;;;;;;;7.25;1.20;;;;;;;31.02;25.33;98722.28;5032431;28;20207;-50
2022/07/14 10:56:42;;;;;;;1.77;1.00;;;;;;;31.22;25.25;98710.53;5032858;28;20180;-49
2022/07/14 10:59:32;;;;;;;4.32;1.23;;;;;;;31.17;25.21;98721.38;5032525;28;20206;-50
2022/07/14 11:02:28;;;;;;;4.30;1.10;;;;;;;31.25;24.96;98712.66;5014883;28;20188;-49
2022/07/14 11:05:08;;;;;;;5.50;1.00;;;;;;;31.15;24.79;98713.53;5032577;28;20219;-50
2022/07/14 11:07:38;;;;;;;5.95;1.23;;;;;;;31.44;24.42;98707.31;5032086;28;20548;-50
2022/07/14 11:10:27;;;;;;;3.53;1.08;;;;;;;31.51;24.37;98705.06;5032633;28;20202;-50
2022/07/14 11:13:09;;;;;;;4.53;1.27;;;;;;;31.60;24.12;98699.03;5032012;28;20200;-50
2022/07/14 11:15:37;;;;;;;5.40;1.10;;;;;;;31.89;23.04;98698.16;5032490;28;20632;-52
2022/07/14 11:18:27;;;;;;;4.93;1.10;;;;;;;31.78;23.77;98692.13;5032384;28;20180;-50
2022/07/14 11:21:00;;;;;;;5.63;1.20;;;;;;;31.88;23.59;98694.66;5032267;28;20212;-50
2022/07/14 11:23:30;;;;;;;2.10;1.00;;;;;;;32.01;22.95;98693.16;5031984;28;20596;-52
2022/07/14 11:26:00;;;;;;;3.45;1.30;;;;;;;31.88;23.12;98691.16;5032214;28;20184;-50
2022/07/14 11:28:41;;;;;;;1.08;0.98;;;;;;;32.09;22.34;98689.78;5032338;28;20230;-50
2022/07/14 11:31:11;;;;;;;2.65;0.98;;;;;;;32.28;23.42;98697.09;5032315;28;20196;-50
2022/07/14 11:36:17;;;;;;;4.25;1.00;;;;;;;32.20;23.22;98682.31;5031948;28;20212;-50
2022/07/14 11:36:31;;;;;;;6.25;1.40;;;;;;;32.34;24.00;98687.03;5031974;28;20183;-50
2022/07/14 11:39:22;;;;;;;3.85;1.08;;;;;;;32.43;23.28;98689.84;5014278;28;20258;-50
2022/07/14 11:41:53;;;;;;;2.17;1.20;;;;;;;32.34;23.48;98678.91;5032164;28;20190;-50
2022/07/14 11:44:45;;;;;;;3.38;1.20;;;;;;;32.10;24.10;98683.28;5014286;28;20219;-50
2022/07/14 11:47:16;;;;;;;1.50;1.13;;;;;;;32.36;23.47;98665.91;5032116;28;20552;-51
2022/07/14 11:49:51;;;;;;;7.55;1.00;;;;;;;32.12;24.18;98666.78;5032040;28;20198;-50
2022/07/14 11:52:26;;;;;;;2.45;1.10;;;;;;;32.28;23.88;98661.97;5014003;28;20226;-50
2022/07/14 11:54:55;;;;;;;3.35;1.42;;;;;;;32.54;24.13;98650.75;5014461;28;20314;-50
2022/07/14 11:57:22;;;;;;;4.40;1.30;;;;;;;32.64;24.33;98661.41;5031914;28;20194;-50
2022/07/14 11:59:50;;;;;;;3.95;1.42;;;;;;;32.87;23.47;98652.66;5031943;28;20298;-50